Pagrindinis puslapis
METAR-TAF:

METAR-TAF

Oro uostai :

Trumsė, Norvegija

platuma: 69-41N, ilguma: 018-55E, Aukštis: 1 m

Dabartinis oras

Ataskaita buvo paskelbta 43 minutes, ne 03:50 UTC
Vėjas 2 kt iš Pietryčių
Temperatūra -7°C
Drėgmė 93%
Slėgis 975 hPa
Matomumas 10 km arba daugiau
Išsisklaidę debesys ne aukštis 700 ft

METAR: ENTC 300350Z 13002KT 9999 SCT007 M07/M08 Q0975 RMK WIND 2600FT 06006KT

Laikas: 05:33 (04:33 UTC)

Prognozė

Prognozė galioja nuo 30 metu 00 UTC su 30 metu 24 UTC
Vėjas 5 kt iš Šiaurės Rytų
Matomumas 10 km arba daugiau
Mažai debesys ne aukštis 3000 ft

TAF: ENTC 3000/3024 04005KT 9999 FEW030

Orai ataskaitas ir orų prognozės (METAR, TAF).

turimą stotys yra geltonos ir raudonos taškus žemėlapyje.

Perkelti pele per norėdami pamatyti stoties vardą.

Tada spustelėkite, norėdami matyti oro stebėjimo ir prognozės.

Norėdami pakeisti žemėlapį: spustelėkite ant žalios mygtukų su juodo kryžiaus žemyn,; žalią mygtuką su brūkšneliu, jei norite nutolinti; arba žalių rodyklių gretimoms žemėlapius.


METAR-TAF: